Terminal Aerodrome Forecast
Issued by NWS

Home | Current Version | Previous Version | Text Only | Print | Product List | Glossary On
Versions: 1 2 3 4 5 6 7 8 9 10 11 12 13 14 15 16 17 18 19 20 21 22 23
000
FTAK31 PAFA 200803 AAA
TAFAQT
TAF AMD
PAQT 200803Z 2008/2106 22006KT P6SM -SN BKN025
     FM201400 23008KT 5SM -SN BR SCT007 OVC015
     FM210200 20010KT P6SM VCSH BKN015 OVC050=

USA.gov is the U.S. government's official web portal to all federal, state and local government web resources and services.